createdAt,value
2019-03-09T00:00:51.167Z,95500.27
2019-03-09T00:03:22.912Z,95502.94
2019-03-09T00:05:54.643Z,95502.72
2019-03-09T00:08:26.318Z,95503.55
2019-03-09T00:10:58.129Z,95498.07
2019-03-09T00:13:29.596Z,95493.80
2019-03-09T00:16:01.251Z,95492.07
2019-03-09T00:18:32.577Z,95490.47
2019-03-09T00:21:03.828Z,95485.44
2019-03-09T00:23:59.627Z,95479.75
2019-03-09T00:26:44.140Z,95475.97
2019-03-09T00:29:30.405Z,95472.21
2019-03-09T00:32:05.242Z,95463.36
2019-03-09T00:34:36.528Z,95469.12
2019-03-09T00:37:07.629Z,95464.66
2019-03-09T00:39:38.881Z,95470.06
2019-03-09T00:42:10.504Z,95473.26
2019-03-09T00:44:41.923Z,95475.11
2019-03-09T00:47:13.706Z,95482.09
2019-03-09T00:49:44.938Z,95479.82
2019-03-09T00:52:16.642Z,95472.91
2019-03-09T00:54:48.360Z,95467.05
2019-03-09T00:57:19.711Z,95474.31
2019-03-09T00:59:56.146Z,95475.19
2019-03-09T01:02:27.658Z,95471.96
2019-03-09T01:04:58.889Z,95468.47
2019-03-09T01:07:30.347Z,95468.02
2019-03-09T01:10:01.709Z,95470.62
2019-03-09T01:12:34.582Z,95469.93
2019-03-09T01:15:07.447Z,95469.41
2019-03-09T01:17:39.791Z,95473.76
2019-03-09T01:20:13.438Z,95470.83
2019-03-09T01:22:44.903Z,95472.67
2019-03-09T01:25:16.412Z,95486.03
2019-03-09T01:27:47.989Z,95484.48
2019-03-09T01:30:19.522Z,95490.07
2019-03-09T01:32:51.229Z,95490.20
2019-03-09T01:35:22.819Z,95486.41
2019-03-09T01:37:54.420Z,95489.98
2019-03-09T01:40:25.973Z,95486.00
2019-03-09T01:42:57.360Z,95495.59
2019-03-09T01:45:29.147Z,95503.17
2019-03-09T01:48:01.095Z,95486.03
2019-03-09T01:50:33.707Z,95495.63
2019-03-09T01:53:05.303Z,95489.34
2019-03-09T01:55:36.819Z,95497.32
2019-03-09T01:58:08.351Z,95493.83
2019-03-09T02:00:40.082Z,95489.17
2019-03-09T02:03:11.546Z,95490.00
2019-03-09T02:05:43.020Z,95485.80
2019-03-09T02:08:14.359Z,95487.42
2019-03-09T02:10:45.724Z,95490.29
2019-03-09T02:13:17.533Z,95492.23
2019-03-09T02:15:49.362Z,95483.83
2019-03-09T02:18:21.024Z,95487.86
2019-03-09T02:20:52.548Z,95494.77
2019-03-09T02:23:24.148Z,95494.65
2019-03-09T02:25:55.708Z,95489.39
2019-03-09T02:28:27.152Z,95494.38
2019-03-09T02:30:58.413Z,95494.75
2019-03-09T02:33:30.070Z,95499.36
2019-03-09T02:36:01.543Z,95492.69
2019-03-09T02:38:38.539Z,95503.64
2019-03-09T02:41:09.738Z,95500.63
2019-03-09T02:43:41.359Z,95500.86
2019-03-09T02:46:13.940Z,95494.53
2019-03-09T02:48:45.351Z,95498.56
2019-03-09T02:51:17.043Z,95507.35
2019-03-09T02:53:48.567Z,95511.00
2019-03-09T02:56:20.139Z,95507.72
2019-03-09T02:58:51.693Z,95508.06
2019-03-09T03:01:48.360Z,95508.66
2019-03-09T03:04:19.702Z,95513.52
2019-03-09T03:06:51.385Z,95519.41
2019-03-09T03:09:22.924Z,95519.28
2019-03-09T03:11:54.429Z,95517.00
2019-03-09T03:14:25.964Z,95526.39
2019-03-09T03:16:57.616Z,95526.87
2019-03-09T03:19:29.158Z,95532.84
2019-03-09T03:22:00.768Z,95532.08
2019-03-09T03:24:32.158Z,95534.57
2019-03-09T03:27:03.737Z,95533.92
2019-03-09T03:29:35.086Z,95533.50
2019-03-09T03:32:06.550Z,95536.84
2019-03-09T03:34:38.122Z,95539.19
2019-03-09T03:37:09.680Z,95537.13
2019-03-09T03:39:41.232Z,95544.70
2019-03-09T03:42:13.740Z,95533.66
2019-03-09T03:44:45.506Z,95541.22
2019-03-09T03:47:18.073Z,95536.36
2019-03-09T03:49:50.666Z,95537.55
2019-03-09T03:52:22.339Z,95539.67
2019-03-09T03:54:53.941Z,95548.24
2019-03-09T03:57:25.578Z,95541.39
2019-03-09T03:59:57.152Z,95543.20
2019-03-09T04:02:28.565Z,95548.41
2019-03-09T04:05:01.026Z,95552.34
2019-03-09T04:07:32.658Z,95563.75
2019-03-09T04:10:04.536Z,95563.75
2019-03-09T04:12:35.968Z,95571.05
2019-03-09T04:15:07.875Z,95577.17
2019-03-09T04:17:39.189Z,95568.02
2019-03-09T04:20:11.537Z,95571.59
2019-03-09T04:22:43.105Z,95564.99
2019-03-09T04:25:14.714Z,95568.22
2019-03-09T04:27:46.135Z,95571.05
2019-03-09T04:30:17.363Z,95575.14
2019-03-09T04:32:48.698Z,95570.18
2019-03-09T04:35:20.161Z,95567.58
2019-03-09T04:37:51.429Z,95574.03
2019-03-09T04:40:22.666Z,95567.38
2019-03-09T04:42:54.422Z,95571.45
2019-03-09T04:45:26.063Z,95577.09
2019-03-09T04:47:57.556Z,95581.33
2019-03-09T04:50:28.843Z,95586.63
2019-03-09T04:53:00.240Z,95598.43
2019-03-09T04:55:31.523Z,95594.98
2019-03-09T04:58:03.000Z,95598.43
2019-03-09T05:00:34.315Z,95600.06
2019-03-09T05:03:05.924Z,95605.34
2019-03-09T05:05:37.441Z,95601.88
2019-03-09T05:08:15.588Z,95604.97
2019-03-09T05:10:58.641Z,95595.81
2019-03-09T05:13:36.092Z,95595.58
2019-03-09T05:16:07.552Z,95596.78
2019-03-09T05:18:39.142Z,95605.27
2019-03-09T05:21:10.656Z,95605.62
2019-03-09T05:23:42.337Z,95612.19
2019-03-09T05:26:13.980Z,95611.64
2019-03-09T05:28:45.437Z,95617.55
2019-03-09T05:31:17.008Z,95615.39
2019-03-09T05:33:48.277Z,95616.32
2019-03-09T05:36:19.816Z,95628.27
2019-03-09T05:38:51.388Z,95622.66
2019-03-09T05:41:27.935Z,95629.56
2019-03-09T05:43:56.270Z,95634.30
2019-03-09T05:46:28.906Z,95638.07
2019-03-09T05:49:00.488Z,95640.75
2019-03-09T05:51:32.112Z,95642.84
2019-03-09T05:54:03.887Z,95640.70
2019-03-09T05:56:35.448Z,95645.62
2019-03-09T05:59:08.535Z,95647.62
2019-03-09T06:01:39.796Z,95642.88
2019-03-09T06:04:11.058Z,95655.36
2019-03-09T06:06:42.489Z,95652.90
2019-03-09T06:09:14.079Z,95653.12
2019-03-09T06:11:45.584Z,95648.16
2019-03-09T06:14:17.189Z,95647.28
2019-03-09T06:16:48.922Z,95655.66
2019-03-09T06:19:20.351Z,95649.47
2019-03-09T06:21:51.953Z,95663.39
2019-03-09T06:24:23.813Z,95660.92
2019-03-09T06:26:55.433Z,95666.42
2019-03-09T06:29:26.796Z,95664.15
2019-03-09T06:32:33.438Z,95661.89
2019-03-09T06:35:04.954Z,95661.02
2019-03-09T06:37:36.664Z,95666.02
2019-03-09T06:40:08.117Z,95663.52
2019-03-09T06:42:45.258Z,95670.68
2019-03-09T06:45:17.716Z,95667.69
2019-03-09T06:47:49.147Z,95665.24
2019-03-09T06:50:21.245Z,95664.42
2019-03-09T06:52:52.360Z,95669.85
2019-03-09T06:55:23.722Z,95671.10
2019-03-09T06:57:55.108Z,95667.97
2019-03-09T07:00:37.678Z,95673.75
2019-03-09T07:03:10.444Z,95673.42
2019-03-09T07:05:41.578Z,95653.91
2019-03-09T07:08:12.599Z,95666.98
2019-03-09T07:10:43.496Z,95668.12
2019-03-09T07:13:14.656Z,95678.80
2019-03-09T07:15:46.834Z,95674.29
2019-03-09T07:18:19.797Z,95677.97
2019-03-09T07:20:50.842Z,95675.65
2019-03-09T07:23:22.018Z,95668.95
2019-03-09T07:25:53.313Z,95674.02
2019-03-09T07:28:24.400Z,95671.87
2019-03-09T07:30:57.952Z,95671.87
2019-03-09T07:33:29.352Z,95664.01
2019-03-09T07:36:00.853Z,95660.88
2019-03-09T07:38:32.022Z,95662.24
2019-03-09T07:41:04.431Z,95652.55
2019-03-09T07:43:35.660Z,95651.55
2019-03-09T07:46:06.789Z,95656.70
2019-03-09T07:48:37.798Z,95657.70
2019-03-09T07:51:09.170Z,95662.86
2019-03-09T07:53:40.232Z,95663.38
2019-03-09T07:56:11.213Z,95656.48
2019-03-09T07:58:42.422Z,95658.95
2019-03-09T08:01:13.635Z,95650.17
2019-03-09T08:03:44.735Z,95653.59
2019-03-09T08:06:15.957Z,95654.87
2019-03-09T08:08:47.158Z,95654.36
2019-03-09T08:11:18.480Z,95649.30
2019-03-09T08:13:49.548Z,95649.61
2019-03-09T08:16:20.586Z,95646.70
2019-03-09T08:18:53.014Z,95647.20
2019-03-09T08:21:24.393Z,95643.18
2019-03-09T08:23:56.538Z,95642.75
2019-03-09T08:26:27.973Z,95642.67
2019-03-09T08:28:59.154Z,95640.86
2019-03-09T08:31:30.582Z,95645.07
2019-03-09T08:34:01.921Z,95643.31
2019-03-09T08:36:34.952Z,95635.03
2019-03-09T08:39:07.525Z,95632.38
2019-03-09T08:41:39.551Z,95636.22
2019-03-09T08:44:11.046Z,95632.08
2019-03-09T08:46:42.662Z,95634.70
2019-03-09T08:49:14.084Z,95627.27
2019-03-09T08:51:45.272Z,95624.14
2019-03-09T08:54:16.638Z,95622.64
2019-03-09T08:56:48.066Z,95611.55
2019-03-09T08:59:19.389Z,95611.34
2019-03-09T09:01:50.876Z,95609.13
2019-03-09T09:04:21.849Z,95609.14
2019-03-09T09:06:53.246Z,95599.41
2019-03-09T09:09:24.624Z,95604.83
2019-03-09T09:11:55.845Z,95601.88
2019-03-09T09:14:27.164Z,95611.04
2019-03-09T09:16:58.266Z,95590.78
2019-03-09T09:19:29.317Z,95595.28
2019-03-09T09:22:00.477Z,95593.09
2019-03-09T09:24:31.681Z,95590.45
2019-03-09T09:27:02.809Z,95587.06
2019-03-09T09:29:34.240Z,95589.08
2019-03-09T09:32:05.755Z,95596.16
2019-03-09T09:34:37.079Z,95595.75
2019-03-09T09:37:08.329Z,95598.30
2019-03-09T09:39:39.484Z,95597.34
2019-03-09T09:42:10.897Z,95596.77
2019-03-09T09:44:42.077Z,95599.50
2019-03-09T09:47:13.611Z,95596.47
2019-03-09T09:49:45.552Z,95592.76
2019-03-09T09:52:17.004Z,95587.16
2019-03-09T09:54:48.520Z,95582.48
2019-03-09T09:57:19.630Z,95581.17
2019-03-09T09:59:50.858Z,95577.41
2019-03-09T10:02:21.897Z,95580.31
2019-03-09T10:04:53.006Z,95570.45
2019-03-09T10:07:24.002Z,95571.58
2019-03-09T10:09:55.034Z,95562.70
2019-03-09T10:12:26.054Z,95563.85
2019-03-09T10:14:56.988Z,95557.50
2019-03-09T10:17:28.322Z,95554.75
2019-03-09T10:19:59.441Z,95553.22
2019-03-09T10:22:30.487Z,95544.64
2019-03-09T10:25:01.424Z,95544.72
2019-03-09T10:27:33.487Z,95540.95
2019-03-09T10:30:04.903Z,95535.01
2019-03-09T10:32:35.906Z,95531.16
2019-03-09T10:35:07.253Z,95530.28
2019-03-09T10:37:38.212Z,95527.09
2019-03-09T10:40:09.573Z,95525.41
2019-03-09T10:42:41.527Z,95523.31
2019-03-09T10:45:12.881Z,95521.17
2019-03-09T10:47:44.804Z,95518.20
2019-03-09T10:50:15.904Z,95511.91
2019-03-09T10:52:47.024Z,95511.66
2019-03-09T10:55:19.744Z,95511.92
2019-03-09T10:57:50.966Z,95499.52
2019-03-09T11:00:24.719Z,95494.14
2019-03-09T11:02:56.261Z,95493.12
2019-03-09T11:05:27.628Z,95486.18
2019-03-09T11:07:58.850Z,95490.78
2019-03-09T11:10:30.355Z,95475.41
2019-03-09T11:13:01.760Z,95468.97
2019-03-09T11:15:33.464Z,95472.13
2019-03-09T11:18:04.483Z,95463.22
2019-03-09T11:20:35.624Z,95458.14
2019-03-09T11:23:06.664Z,95450.36
2019-03-09T11:25:37.883Z,95445.94
2019-03-09T11:28:10.838Z,95441.38
2019-03-09T11:30:42.379Z,95429.20
2019-03-09T11:33:13.648Z,95423.70
2019-03-09T11:35:44.916Z,95422.11
2019-03-09T11:38:16.291Z,95416.84
2019-03-09T11:40:57.037Z,95409.02
2019-03-09T11:43:20.275Z,95406.23
2019-03-09T11:45:51.400Z,95405.23
2019-03-09T11:48:22.592Z,95398.78
2019-03-09T11:50:54.026Z,95396.70
2019-03-09T11:53:25.515Z,95397.58
2019-03-09T11:55:56.857Z,95386.88
2019-03-09T11:58:27.807Z,95375.86
2019-03-09T12:00:59.086Z,95372.22
2019-03-09T12:03:30.365Z,95365.59
2019-03-09T12:06:01.615Z,95362.16
2019-03-09T12:08:33.088Z,95359.08
2019-03-09T12:11:04.320Z,95357.10
2019-03-09T12:13:35.890Z,95354.89
2019-03-09T12:16:08.149Z,95361.56
2019-03-09T12:18:39.498Z,95351.82
2019-03-09T12:23:41.848Z,95349.72
2019-03-09T12:26:12.885Z,95343.37
2019-03-09T12:28:44.308Z,95341.10
2019-03-09T12:31:15.724Z,95338.27
2019-03-09T12:33:46.779Z,95332.42
2019-03-09T12:36:18.013Z,95339.02
2019-03-09T12:38:48.979Z,95337.18
2019-03-09T12:41:20.210Z,95335.38
2019-03-09T12:43:51.202Z,95328.97
2019-03-09T12:46:22.260Z,95327.78
2019-03-09T12:48:53.264Z,95328.20
2019-03-09T12:51:24.287Z,95320.97
2019-03-09T12:53:55.825Z,95320.59
2019-03-09T12:56:27.056Z,95314.80
2019-03-09T12:58:58.122Z,95318.05
2019-03-09T13:01:29.088Z,95316.73
2019-03-09T13:04:00.243Z,95317.88
2019-03-09T13:06:31.346Z,95309.00
2019-03-09T13:09:02.547Z,95303.31
2019-03-09T13:11:35.023Z,95303.04
2019-03-09T13:14:06.505Z,95301.01
2019-03-09T13:16:37.645Z,95307.03
2019-03-09T13:19:09.008Z,95299.14
2019-03-09T13:21:40.345Z,95297.58
2019-03-09T13:24:11.666Z,95292.69
2019-03-09T13:26:43.162Z,95290.84
2019-03-09T13:29:14.130Z,95286.52
2019-03-09T13:34:15.113Z,95287.67
2019-03-09T13:36:46.434Z,95281.67
2019-03-09T13:39:17.746Z,95285.55
2019-03-09T13:41:48.714Z,95277.61
2019-03-09T13:44:19.686Z,95279.02
2019-03-09T13:46:50.965Z,95274.17
2019-03-09T13:49:22.172Z,95268.23
2019-03-09T13:51:53.589Z,95263.10
2019-03-09T13:56:55.396Z,95262.02
2019-03-09T13:59:27.447Z,95255.39
2019-03-09T14:01:58.652Z,95249.98
2019-03-09T14:04:29.897Z,95252.11
2019-03-09T14:07:01.273Z,95248.33
2019-03-09T14:09:32.721Z,95239.66
2019-03-09T14:12:03.856Z,95233.69
2019-03-09T14:14:35.263Z,95240.23
2019-03-09T14:17:06.390Z,95239.65
2019-03-09T14:19:37.556Z,95235.06
2019-03-09T14:22:09.010Z,95234.24
2019-03-09T14:24:40.440Z,95233.22
2019-03-09T14:27:11.723Z,95224.54
2019-03-09T14:29:42.843Z,95222.58
2019-03-09T14:32:14.331Z,95222.77
2019-03-09T14:34:45.724Z,95220.00
2019-03-09T14:37:17.084Z,95219.59
2019-03-09T14:39:48.507Z,95215.59
2019-03-09T14:42:19.625Z,95215.81
2019-03-09T14:44:50.691Z,95213.27
2019-03-09T14:47:21.829Z,95208.27
2019-03-09T14:49:52.986Z,95215.41
2019-03-09T14:52:24.368Z,95202.67
2019-03-09T14:54:55.612Z,95204.44
2019-03-09T14:57:26.631Z,95209.11
2019-03-09T14:59:57.535Z,95201.84
2019-03-09T15:02:28.691Z,95195.03
2019-03-09T15:04:59.714Z,95191.19
2019-03-09T15:07:30.820Z,95176.11
2019-03-09T15:10:01.789Z,95184.23
2019-03-09T15:12:33.039Z,95185.04
2019-03-09T15:15:04.153Z,95180.26
2019-03-09T15:17:35.182Z,95180.80
2019-03-09T15:20:06.822Z,95184.89
2019-03-09T15:22:38.039Z,95181.94
2019-03-09T15:25:10.072Z,95173.95
2019-03-09T15:27:41.034Z,95186.55
2019-03-09T15:30:13.592Z,95184.13
2019-03-09T15:32:44.649Z,95183.70
2019-03-09T15:35:16.953Z,95183.89
2019-03-09T15:37:48.450Z,95180.77
2019-03-09T15:40:21.434Z,95179.69
2019-03-09T15:42:52.870Z,95176.47
2019-03-09T15:45:25.027Z,95178.84
2019-03-09T15:47:56.270Z,95175.55
2019-03-09T15:50:27.359Z,95180.95
2019-03-09T15:52:58.505Z,95181.55
2019-03-09T15:55:29.587Z,95187.38
2019-03-09T15:58:00.962Z,95189.00
2019-03-09T16:00:31.966Z,95190.83
2019-03-09T16:03:03.321Z,95193.05
2019-03-09T16:05:34.714Z,95190.77
2019-03-09T16:08:06.177Z,95196.81
2019-03-09T16:10:37.687Z,95193.54
2019-03-09T16:13:09.068Z,95193.66
2019-03-09T16:15:40.381Z,95196.66
2019-03-09T16:18:11.331Z,95190.26
2019-03-09T16:20:42.591Z,95191.24
2019-03-09T16:23:13.721Z,95190.13
2019-03-09T16:25:44.905Z,95191.06
2019-03-09T16:28:16.319Z,95199.67
2019-03-09T16:30:47.752Z,95199.74
2019-03-09T16:33:19.154Z,95196.36
2019-03-09T16:35:50.439Z,95202.88
2019-03-09T16:38:21.498Z,95206.25
2019-03-09T16:40:52.858Z,95205.73
2019-03-09T16:43:24.379Z,95207.76
2019-03-09T16:45:55.496Z,95209.66
2019-03-09T16:48:27.035Z,95210.61
2019-03-09T16:50:58.312Z,95213.82
2019-03-09T16:53:29.601Z,95213.42
2019-03-09T16:56:01.025Z,95212.64
2019-03-09T16:58:32.370Z,95206.09
2019-03-09T17:01:03.717Z,95214.87
2019-03-09T17:03:34.732Z,95225.37
2019-03-09T17:06:06.015Z,95232.13
2019-03-09T17:08:37.224Z,95227.19
2019-03-09T17:11:08.717Z,95235.51
2019-03-09T17:13:40.054Z,95234.31
2019-03-09T17:16:11.479Z,95238.91
2019-03-09T17:18:42.834Z,95249.04
2019-03-09T17:21:15.495Z,95249.04
2019-03-09T17:23:47.774Z,95252.31
2019-03-09T17:26:18.937Z,95256.41
2019-03-09T17:28:50.564Z,95276.59
2019-03-09T17:31:24.996Z,95308.13
2019-03-09T17:33:56.572Z,95304.02
2019-03-09T17:36:27.839Z,95312.22
2019-03-09T17:38:59.065Z,95312.08
2019-03-09T17:41:30.281Z,95327.99
2019-03-09T17:44:01.753Z,95328.97
2019-03-09T17:46:32.911Z,95328.97
2019-03-09T17:49:04.194Z,95331.05
2019-03-09T17:51:35.456Z,95333.76
2019-03-09T17:54:06.869Z,95333.20
2019-03-09T17:56:37.822Z,95331.90
2019-03-09T17:59:09.046Z,95338.02
2019-03-09T18:01:40.430Z,95349.55
2019-03-09T18:04:11.613Z,95352.18
2019-03-09T18:06:43.019Z,95348.09
2019-03-09T18:09:14.267Z,95364.00
2019-03-09T18:11:45.483Z,95353.05
2019-03-09T18:14:16.695Z,95347.80
2019-03-09T18:16:52.655Z,95347.62
2019-03-09T18:19:20.722Z,95350.77
2019-03-09T18:21:51.827Z,95345.00
2019-03-09T18:24:23.250Z,95354.19
2019-03-09T18:26:54.583Z,95355.17
2019-03-09T18:29:26.882Z,95353.69
2019-03-09T18:31:58.207Z,95359.23
2019-03-09T18:34:29.635Z,95357.62
2019-03-09T18:37:00.989Z,95355.81
2019-03-09T18:39:32.290Z,95353.35
2019-03-09T18:42:03.494Z,95349.42
2019-03-09T18:44:34.939Z,95347.77
2019-03-09T18:47:06.233Z,95345.00
2019-03-09T18:49:37.418Z,95353.98
2019-03-09T18:52:08.603Z,95346.30
2019-03-09T18:54:39.909Z,95348.61
2019-03-09T18:57:11.157Z,95349.93
2019-03-09T18:59:43.268Z,95349.92
2019-03-09T19:02:14.487Z,95352.70
2019-03-09T19:04:45.668Z,95350.75
2019-03-09T19:07:16.848Z,95356.65
2019-03-09T19:09:48.199Z,95361.39
2019-03-09T19:12:19.440Z,95362.70
2019-03-09T19:14:50.441Z,95358.44
2019-03-09T19:17:21.576Z,95362.21
2019-03-09T19:19:52.851Z,95363.54
2019-03-09T19:22:24.139Z,95357.13
2019-03-09T19:24:55.140Z,95351.22
2019-03-09T19:27:26.260Z,95360.25
2019-03-09T19:29:57.589Z,95360.40
2019-03-09T19:32:28.741Z,95361.72
2019-03-09T19:35:00.011Z,95363.98
2019-03-09T19:37:31.011Z,95364.31
2019-03-09T19:40:02.114Z,95359.53
2019-03-09T19:42:34.026Z,95360.22
2019-03-09T19:45:05.258Z,95367.22
2019-03-09T19:47:36.227Z,95369.84
2019-03-09T19:50:09.022Z,95370.44
2019-03-09T19:52:40.178Z,95368.64
2019-03-09T19:55:11.662Z,95367.05
2019-03-09T19:57:42.730Z,95367.16
2019-03-09T20:00:14.714Z,95358.36
2019-03-09T20:02:45.717Z,95362.29
2019-03-09T20:05:17.021Z,95358.86
2019-03-09T20:07:47.958Z,95354.47
2019-03-09T20:10:19.293Z,95352.66
2019-03-09T20:12:50.502Z,95351.03
2019-03-09T20:15:21.792Z,95356.80
2019-03-09T20:17:52.937Z,95355.61
2019-03-09T20:20:24.171Z,95356.75
2019-03-09T20:22:55.393Z,95357.07
2019-03-09T20:25:28.456Z,95350.48
2019-03-09T20:27:58.956Z,95346.75
2019-03-09T20:30:29.992Z,95356.38
2019-03-09T20:33:02.047Z,95351.72
2019-03-09T20:35:33.339Z,95350.59
2019-03-09T20:38:04.817Z,95351.83
2019-03-09T20:40:36.136Z,95348.89
2019-03-09T20:43:07.241Z,95351.50
2019-03-09T20:45:38.386Z,95350.71
2019-03-09T20:48:10.020Z,95336.72
2019-03-09T20:50:41.138Z,95349.50
2019-03-09T20:53:13.215Z,95340.67
2019-03-09T20:55:44.232Z,95343.15
2019-03-09T20:58:15.154Z,95342.00
2019-03-09T21:00:46.433Z,95343.80
2019-03-09T21:03:17.549Z,95335.30
2019-03-09T21:05:49.089Z,95336.00
2019-03-09T21:08:19.998Z,95339.15
2019-03-09T21:10:51.105Z,95337.39
2019-03-09T21:13:22.194Z,95331.19
2019-03-09T21:15:53.451Z,95327.75
2019-03-09T21:18:24.551Z,95324.34
2019-03-09T21:20:55.688Z,95326.48
2019-03-09T21:23:26.617Z,95328.27
2019-03-09T21:25:57.527Z,95326.13
2019-03-09T21:28:28.841Z,95329.49
2019-03-09T21:31:00.005Z,95330.13
2019-03-09T21:33:31.341Z,95329.72
2019-03-09T21:36:02.612Z,95322.17
2019-03-09T21:38:33.773Z,95319.97
2019-03-09T21:41:04.992Z,95310.94
2019-03-09T21:43:36.204Z,95314.47
2019-03-09T21:46:08.519Z,95312.84
2019-03-09T21:48:39.705Z,95312.55
2019-03-09T21:51:10.900Z,95312.34
2019-03-09T21:53:42.503Z,95309.51
2019-03-09T21:56:13.833Z,95309.95
2019-03-09T21:58:45.617Z,95311.05
2019-03-09T22:01:17.175Z,95309.27
2019-03-09T22:03:48.457Z,95304.41
2019-03-09T22:06:19.598Z,95297.58
2019-03-09T22:08:50.981Z,95307.94
2019-03-09T22:11:22.254Z,95305.72
2019-03-09T22:13:53.474Z,95303.95
2019-03-09T22:16:24.767Z,95306.30
2019-03-09T22:18:56.086Z,95300.64
2019-03-09T22:21:27.686Z,95305.32
2019-03-09T22:23:58.777Z,95299.49
2019-03-09T22:26:30.318Z,95297.80
2019-03-09T22:29:01.408Z,95299.38
2019-03-09T22:31:32.603Z,95297.36
2019-03-09T22:34:03.914Z,95296.02
2019-03-09T22:36:35.402Z,95291.90
2019-03-09T22:39:07.552Z,95298.47
2019-03-09T22:41:39.126Z,95294.06
2019-03-09T22:44:10.172Z,95293.77
2019-03-09T22:46:41.102Z,95289.88
2019-03-09T22:49:12.717Z,95289.22
2019-03-09T22:51:43.770Z,95300.33
2019-03-09T22:54:14.911Z,95299.25
2019-03-09T22:56:46.318Z,95305.16
2019-03-09T22:59:17.528Z,95292.11
2019-03-09T23:01:48.643Z,95298.05
2019-03-09T23:04:19.902Z,95301.53
2019-03-09T23:06:51.143Z,95306.59
2019-03-09T23:09:22.536Z,95307.78
2019-03-09T23:11:53.878Z,95311.42
2019-03-09T23:14:25.195Z,95306.47
2019-03-09T23:16:56.619Z,95302.39
2019-03-09T23:19:27.730Z,95303.86
2019-03-09T23:21:59.271Z,95295.55
2019-03-09T23:24:30.482Z,95295.55
2019-03-09T23:27:01.807Z,95288.33
2019-03-09T23:29:32.989Z,95291.30
2019-03-09T23:32:04.190Z,95289.00
2019-03-09T23:34:35.326Z,95293.61
2019-03-09T23:37:06.613Z,95294.94
2019-03-09T23:39:38.067Z,95296.60
2019-03-09T23:42:09.347Z,95283.36
2019-03-09T23:44:40.498Z,95278.95
2019-03-09T23:47:11.559Z,95281.38
2019-03-09T23:49:42.671Z,95285.77
2019-03-09T23:52:13.926Z,95281.72
2019-03-09T23:54:45.275Z,95280.40
2019-03-09T23:57:17.082Z,95291.48
2019-03-09T23:59:48.628Z,95298.00
